createdAt,value
2019-04-21T00:00:25.833Z,39.90
2019-04-21T00:02:59.581Z,39.87
2019-04-21T00:05:52.678Z,33.53
2019-04-21T00:08:24.874Z,41.73
2019-04-21T00:10:59.360Z,38.53
2019-04-21T00:13:22.590Z,38.40
2019-04-21T00:15:44.206Z,35.17
2019-04-21T00:18:14.401Z,45.67
2019-04-21T00:20:49.697Z,36.70
2019-04-21T00:23:33.247Z,37.30
2019-04-21T00:26:01.966Z,37.27
2019-04-21T00:28:42.506Z,34.77
2019-04-21T00:31:14.129Z,37.10
2019-04-21T00:33:30.046Z,34.33
2019-04-21T00:36:05.080Z,35.97
2019-04-21T00:39:02.712Z,34.43
2019-04-21T00:41:19.021Z,30.63
2019-04-21T00:43:46.499Z,33.63
2019-04-21T00:46:17.445Z,29.93
2019-04-21T00:48:59.237Z,36.40
2019-04-21T00:54:12.660Z,28.83
2019-04-21T00:56:36.595Z,31.97
2019-04-21T00:59:05.779Z,28.43
2019-04-21T01:01:38.240Z,34.57
2019-04-21T01:04:09.726Z,26.87
2019-04-21T01:06:43.383Z,25.77
2019-04-21T01:09:07.983Z,25.87
2019-04-21T01:11:49.580Z,28.13
2019-04-21T01:14:31.501Z,24.23
2019-04-21T01:16:51.674Z,23.60
2019-04-21T01:19:20.963Z,25.23
2019-04-21T01:21:34.264Z,25.37
2019-04-21T01:24:11.794Z,27.53
2019-04-21T01:26:47.033Z,21.53
2019-04-21T01:29:29.086Z,20.77
2019-04-21T01:32:05.129Z,25.83
2019-04-21T01:34:32.985Z,26.60
2019-04-21T01:36:58.685Z,18.93
2019-04-21T01:39:44.048Z,22.23
2019-04-21T01:42:09.513Z,17.23
2019-04-21T01:44:43.085Z,17.77
2019-04-21T01:47:14.601Z,20.23
2019-04-21T01:49:34.747Z,24.60
2019-04-21T01:52:24.683Z,20.87
2019-04-21T01:54:57.645Z,19.60
2019-04-21T01:57:27.938Z,18.17
2019-04-21T01:59:51.594Z,19.70
2019-04-21T02:02:29.387Z,18.93
2019-04-21T02:05:10.530Z,21.90
2019-04-21T02:07:34.555Z,25.50
2019-04-21T02:10:11.449Z,22.23
2019-04-21T02:12:56.828Z,23.43
2019-04-21T02:15:36.043Z,23.70
2019-04-21T02:17:59.649Z,24.90
2019-04-21T02:20:26.960Z,26.70
2019-04-21T02:23:23.015Z,19.90
2019-04-21T02:25:40.985Z,19.80
2019-04-21T02:28:14.792Z,20.87
2019-04-21T02:30:56.611Z,21.27
2019-04-21T02:36:22.753Z,20.63
2019-04-21T02:40:57.567Z,19.93
2019-04-21T02:43:56.373Z,19.87
2019-04-21T02:49:07.850Z,18.93
2019-04-21T02:51:45.227Z,22.07
2019-04-21T02:54:32.401Z,24.73
2019-04-21T02:56:34.273Z,23.63
2019-04-21T03:07:19.193Z,23.50
2019-04-21T03:09:54.977Z,19.87
2019-04-21T03:12:20.104Z,22.83
2019-04-21T03:17:29.530Z,19.73
2019-04-21T03:20:17.587Z,22.67
2019-04-21T03:22:53.510Z,24.70
2019-04-21T03:30:53.039Z,26.27
2019-04-21T03:33:24.016Z,19.23
2019-04-21T03:35:57.464Z,27.93
2019-04-21T03:40:27.218Z,18.90
2019-04-21T03:43:10.462Z,21.40
2019-04-21T03:45:39.162Z,23.90
2019-04-21T03:48:08.826Z,22.37
2019-04-21T03:50:39.495Z,21.67
2019-04-21T03:55:58.667Z,24.53
2019-04-21T04:01:04.227Z,19.63
2019-04-21T04:06:20.066Z,20.10
2019-04-21T04:09:03.519Z,21.03
2019-04-21T04:14:14.143Z,31.00
2019-04-21T04:16:39.424Z,23.70
2019-04-21T04:24:19.217Z,36.70
2019-04-21T04:26:45.552Z,28.27
2019-04-21T04:29:19.195Z,29.47
2019-04-21T04:34:21.780Z,59.90
2019-04-21T04:39:38.651Z,55.17
2019-04-21T04:47:19.779Z,37.17
2019-04-21T04:49:49.053Z,22.90
2019-04-21T04:55:03.524Z,32.73
2019-04-21T04:57:42.032Z,32.97
2019-04-21T05:00:21.988Z,25.53
2019-04-21T05:02:33.695Z,22.40
2019-04-21T05:05:13.698Z,28.60
2019-04-21T05:12:37.662Z,21.63
2019-04-21T05:15:19.290Z,22.40
2019-04-21T05:22:44.751Z,24.97
2019-04-21T05:25:08.337Z,23.90
2019-04-21T05:27:38.619Z,29.90
2019-04-21T05:30:21.966Z,26.77
2019-04-21T05:32:52.773Z,31.50
2019-04-21T05:35:47.706Z,26.53
2019-04-21T05:38:12.789Z,27.37
2019-04-21T05:40:38.939Z,28.47
2019-04-21T05:43:26.006Z,26.17
2019-04-21T05:45:51.986Z,27.47
2019-04-21T05:48:28.323Z,26.30
2019-04-21T05:50:53.674Z,29.00
2019-04-21T05:56:05.005Z,25.77
2019-04-21T05:58:34.932Z,30.00
2019-04-21T06:01:16.617Z,32.40
2019-04-21T06:03:44.889Z,20.87
2019-04-21T06:08:46.902Z,25.27
2019-04-21T06:11:19.060Z,18.53
2019-04-21T06:13:55.150Z,20.07
2019-04-21T06:16:26.044Z,21.37
2019-04-21T06:18:56.100Z,23.18
2019-04-21T06:21:25.216Z,15.70
2019-04-21T06:23:51.549Z,17.27
2019-04-21T06:26:50.398Z,16.15
2019-04-21T06:31:57.838Z,19.20
2019-04-21T06:34:00.507Z,19.35
2019-04-21T06:36:56.720Z,21.75
2019-04-21T06:41:43.174Z,19.15
2019-04-21T06:46:45.687Z,21.12
2019-04-21T06:49:15.576Z,19.45
2019-04-21T06:51:48.311Z,21.62
2019-04-21T06:54:23.891Z,17.42
2019-04-21T06:57:23.124Z,14.55
2019-04-21T06:59:23.441Z,19.57
2019-04-21T07:02:01.215Z,14.93
2019-04-21T07:04:31.177Z,17.40
2019-04-21T07:06:59.236Z,21.87
2019-04-21T07:09:31.647Z,16.25
2019-04-21T07:11:59.842Z,18.87
2019-04-21T07:14:32.001Z,25.68
2019-04-21T07:17:15.976Z,17.07
2019-04-21T07:19:41.015Z,16.60
2019-04-21T07:22:12.342Z,14.85
2019-04-21T07:24:57.364Z,21.93
2019-04-21T07:27:16.166Z,18.10
2019-04-21T07:29:47.769Z,16.65
2019-04-21T07:32:19.157Z,17.75
2019-04-21T07:34:45.919Z,15.03
2019-04-21T07:37:12.591Z,14.40
2019-04-21T07:39:45.072Z,18.77
2019-04-21T07:42:17.476Z,13.15
2019-04-21T07:44:46.090Z,13.98
2019-04-21T07:47:26.518Z,11.80
2019-04-21T07:50:03.476Z,14.33
2019-04-21T07:52:39.514Z,11.93
2019-04-21T07:55:18.699Z,12.80
2019-04-21T07:57:36.868Z,14.90
2019-04-21T08:00:20.944Z,16.25
2019-04-21T08:03:05.242Z,11.45
2019-04-21T08:05:20.065Z,12.37
2019-04-21T08:07:52.151Z,11.43
2019-04-21T08:10:16.818Z,10.15
2019-04-21T08:12:47.849Z,17.52
2019-04-21T08:17:57.263Z,12.00
2019-04-21T08:20:24.160Z,13.25
2019-04-21T08:22:58.994Z,15.32
2019-04-21T08:25:27.337Z,12.63
2019-04-21T08:28:01.155Z,10.60
2019-04-21T08:30:32.255Z,16.12
2019-04-21T08:33:14.355Z,11.48
2019-04-21T08:35:52.931Z,12.37
2019-04-21T08:38:10.588Z,11.85
2019-04-21T08:40:40.854Z,15.18
2019-04-21T08:43:10.861Z,12.93
2019-04-21T08:45:45.319Z,13.75
2019-04-21T08:48:13.572Z,8.45
2019-04-21T08:50:47.527Z,12.53
2019-04-21T08:53:14.426Z,11.28
2019-04-21T08:56:12.215Z,9.60
2019-04-21T08:58:59.034Z,7.30
2019-04-21T09:01:34.278Z,12.78
2019-04-21T09:04:13.366Z,10.90
2019-04-21T09:09:21.014Z,11.10
2019-04-21T09:11:50.932Z,10.28
2019-04-21T09:14:20.653Z,8.38
2019-04-21T09:16:47.239Z,7.85
2019-04-21T09:19:34.087Z,8.33
2019-04-21T09:21:54.975Z,11.97
2019-04-21T09:24:43.062Z,7.58
2019-04-21T09:26:57.909Z,10.10
2019-04-21T09:29:21.750Z,8.23
2019-04-21T09:31:44.456Z,7.40
2019-04-21T09:34:21.941Z,8.45
2019-04-21T09:36:51.130Z,8.28
2019-04-21T09:39:20.155Z,10.23
2019-04-21T09:41:51.203Z,10.93
2019-04-21T09:44:25.429Z,13.20
2019-04-21T09:46:54.871Z,10.28
2019-04-21T09:49:27.045Z,11.75
2019-04-21T09:51:55.156Z,9.63
2019-04-21T09:54:31.165Z,11.63
2019-04-21T09:57:02.883Z,12.80
2019-04-21T09:59:34.954Z,9.03
2019-04-21T10:02:09.653Z,8.65
2019-04-21T10:04:31.330Z,10.78
2019-04-21T10:07:02.388Z,6.67
2019-04-21T10:09:33.365Z,7.12
2019-04-21T10:12:03.445Z,7.67
2019-04-21T10:14:33.428Z,7.30
2019-04-21T10:17:23.830Z,10.15
2019-04-21T10:19:55.109Z,6.08
2019-04-21T10:22:26.576Z,10.20
2019-04-21T10:24:56.700Z,7.50
2019-04-21T10:27:27.306Z,12.05
2019-04-21T10:29:58.175Z,13.25
2019-04-21T10:32:28.239Z,6.50
2019-04-21T10:34:59.201Z,13.28
2019-04-21T10:37:42.543Z,6.72
2019-04-21T10:40:00.918Z,6.15
2019-04-21T10:42:31.230Z,8.08
2019-04-21T10:45:01.163Z,8.48
2019-04-21T10:47:31.342Z,9.95
2019-04-21T10:50:02.407Z,9.28
2019-04-21T10:52:50.984Z,6.75
2019-04-21T10:55:41.479Z,8.65
2019-04-21T10:58:11.064Z,18.12
2019-04-21T11:00:43.899Z,7.78
2019-04-21T11:03:31.021Z,9.40
2019-04-21T11:06:03.230Z,6.80
2019-04-21T11:08:37.872Z,12.63
2019-04-21T11:11:05.752Z,9.65
2019-04-21T11:13:36.943Z,13.93
2019-04-21T11:16:07.076Z,16.02
2019-04-21T11:18:37.797Z,11.08
2019-04-21T11:21:09.076Z,20.57
2019-04-21T11:23:40.349Z,17.17
2019-04-21T11:26:11.871Z,16.87
2019-04-21T11:28:43.006Z,11.05
2019-04-21T11:31:13.345Z,14.40
2019-04-21T11:33:43.175Z,33.60
2019-04-21T11:36:13.413Z,13.20
2019-04-21T11:39:05.374Z,14.78
2019-04-21T11:41:19.638Z,11.18
2019-04-21T11:43:50.786Z,10.90
2019-04-21T11:46:20.842Z,11.35
2019-04-21T11:48:50.684Z,14.20
2019-04-21T11:51:20.507Z,8.70
2019-04-21T11:53:50.752Z,8.65
2019-04-21T11:56:20.919Z,9.40
2019-04-21T11:58:51.840Z,11.25
2019-04-21T12:01:21.847Z,7.83
2019-04-21T12:03:51.819Z,8.63
2019-04-21T12:06:28.605Z,8.28
2019-04-21T12:08:56.408Z,5.95
2019-04-21T12:11:25.221Z,8.05
2019-04-21T12:13:56.267Z,6.28
2019-04-21T12:16:26.207Z,11.03
2019-04-21T12:18:56.789Z,11.30
2019-04-21T12:21:29.559Z,8.23
2019-04-21T12:23:58.587Z,8.85
2019-04-21T12:26:28.615Z,7.97
2019-04-21T12:28:59.616Z,8.58
2019-04-21T12:31:47.636Z,9.70
2019-04-21T12:34:17.945Z,7.70
2019-04-21T12:36:50.703Z,17.52
2019-04-21T12:39:20.874Z,33.25
2019-04-21T12:41:50.857Z,13.28
2019-04-21T12:44:20.999Z,9.55
2019-04-21T12:46:51.957Z,9.20
2019-04-21T12:49:22.106Z,10.85
2019-04-21T12:51:53.412Z,10.55
2019-04-21T12:54:23.796Z,8.15
2019-04-21T12:56:53.916Z,7.55
2019-04-21T12:59:24.603Z,10.05
2019-04-21T13:01:54.850Z,9.40
2019-04-21T13:04:25.911Z,8.95
2019-04-21T13:06:57.251Z,10.68
2019-04-21T13:09:29.177Z,7.78
2019-04-21T13:11:59.455Z,23.00
2019-04-21T13:14:29.658Z,12.30
2019-04-21T13:16:59.670Z,8.68
2019-04-21T13:19:29.610Z,12.45
2019-04-21T13:22:00.201Z,8.53
2019-04-21T13:24:31.787Z,13.13
2019-04-21T13:27:03.628Z,14.33
2019-04-21T13:29:34.330Z,11.70
2019-04-21T13:32:05.477Z,10.48
2019-04-21T13:34:36.049Z,11.35
2019-04-21T13:37:06.099Z,12.55
2019-04-21T13:40:04.855Z,8.80
2019-04-21T13:42:21.377Z,12.53
2019-04-21T13:44:44.494Z,12.65
2019-04-21T13:47:14.580Z,17.17
2019-04-21T13:49:45.484Z,15.38
2019-04-21T13:52:15.566Z,16.73
2019-04-21T13:54:45.600Z,10.10
2019-04-21T13:57:16.687Z,9.53
2019-04-21T13:59:49.328Z,10.65
2019-04-21T14:02:18.595Z,12.75
2019-04-21T14:04:49.655Z,13.55
2019-04-21T14:07:20.493Z,15.90
2019-04-21T14:09:57.633Z,12.20
2019-04-21T14:12:23.338Z,14.50
2019-04-21T14:14:54.417Z,19.42
2019-04-21T14:17:24.664Z,13.08
2019-04-21T14:19:55.254Z,12.45
2019-04-21T14:22:26.403Z,12.40
2019-04-21T14:24:56.413Z,14.40
2019-04-21T14:27:26.315Z,11.43
2019-04-21T14:29:57.598Z,9.55
2019-04-21T14:32:29.593Z,12.07
2019-04-21T14:34:59.132Z,11.60
2019-04-21T14:37:28.981Z,9.08
2019-04-21T14:40:06.580Z,8.93
2019-04-21T14:42:31.853Z,10.08
2019-04-21T14:45:03.190Z,9.90
2019-04-21T14:47:35.081Z,9.23
2019-04-21T14:50:13.465Z,10.45
2019-04-21T14:52:44.323Z,13.85
2019-04-21T14:55:22.788Z,9.78
2019-04-21T14:57:52.852Z,11.55
2019-04-21T15:00:24.995Z,9.65
2019-04-21T15:02:55.829Z,9.55
2019-04-21T15:05:27.226Z,10.72
2019-04-21T15:07:57.330Z,14.65
2019-04-21T15:10:30.386Z,13.50
2019-04-21T15:12:59.385Z,14.30
2019-04-21T15:15:29.937Z,9.33
2019-04-21T15:17:59.919Z,11.28
2019-04-21T15:20:30.955Z,8.68
2019-04-21T15:23:02.043Z,8.90
2019-04-21T15:25:32.313Z,10.85
2019-04-21T15:28:03.195Z,10.18
2019-04-21T15:30:34.330Z,10.63
2019-04-21T15:33:04.565Z,15.25
2019-04-21T15:35:35.290Z,10.48
2019-04-21T15:38:05.624Z,11.38
2019-04-21T15:40:44.585Z,16.80
2019-04-21T15:43:08.392Z,11.90
2019-04-21T15:45:39.036Z,16.23
2019-04-21T15:48:09.870Z,13.50
2019-04-21T15:50:41.832Z,12.78
2019-04-21T15:53:13.917Z,12.55
2019-04-21T15:55:58.991Z,14.18
2019-04-21T15:58:30.627Z,11.83
2019-04-21T16:01:04.868Z,21.25
2019-04-21T16:03:34.825Z,15.40
2019-04-21T16:06:05.593Z,21.80
2019-04-21T16:08:35.529Z,12.95
2019-04-21T16:11:08.073Z,14.13
2019-04-21T16:13:37.334Z,13.30
2019-04-21T16:16:08.526Z,15.05
2019-04-21T16:18:38.487Z,14.75
2019-04-21T16:21:08.410Z,11.08
2019-04-21T16:23:38.389Z,13.35
2019-04-21T16:26:08.715Z,13.40
2019-04-21T16:28:39.493Z,11.15
2019-04-21T16:31:10.195Z,17.77
2019-04-21T16:33:41.046Z,14.65
2019-04-21T16:36:13.120Z,12.95
2019-04-21T16:38:43.694Z,17.82
2019-04-21T16:41:14.227Z,14.78
2019-04-21T16:43:45.033Z,14.63
2019-04-21T16:46:15.784Z,9.90
2019-04-21T16:48:45.982Z,14.93
2019-04-21T16:51:16.044Z,19.47
2019-04-21T16:53:53.672Z,17.65
2019-04-21T16:56:25.264Z,13.97
2019-04-21T16:59:00.773Z,14.70
2019-04-21T17:01:32.032Z,17.05
2019-04-21T17:04:02.361Z,21.05
2019-04-21T17:06:33.305Z,19.37
2019-04-21T17:09:03.285Z,15.37
2019-04-21T17:11:35.334Z,16.07
2019-04-21T17:14:05.774Z,15.33
2019-04-21T17:16:57.133Z,18.90
2019-04-21T17:19:14.704Z,21.80
2019-04-21T17:21:41.649Z,17.00
2019-04-21T17:24:12.701Z,16.73
2019-04-21T17:26:44.727Z,23.93
2019-04-21T17:29:16.863Z,13.60
2019-04-21T17:31:47.775Z,13.63
2019-04-21T17:34:21.595Z,15.27
2019-04-21T17:36:50.969Z,16.80
2019-04-21T17:39:22.752Z,18.67
2019-04-21T17:42:05.277Z,25.23
2019-04-21T17:44:25.685Z,23.97
2019-04-21T17:47:01.393Z,22.43
2019-04-21T17:49:28.693Z,22.57
2019-04-21T17:52:11.367Z,23.17
2019-04-21T17:54:49.081Z,21.00
2019-04-21T17:57:36.464Z,27.17
2019-04-21T18:00:14.076Z,29.07
2019-04-21T18:02:46.303Z,32.00
2019-04-21T18:05:19.157Z,35.07
2019-04-21T18:07:46.527Z,33.57
2019-04-21T18:10:11.542Z,30.53
2019-04-21T18:12:41.420Z,30.67
2019-04-21T18:15:16.324Z,26.33
2019-04-21T18:17:32.214Z,30.23
2019-04-21T18:20:03.845Z,27.30
2019-04-21T18:22:54.964Z,26.43
2019-04-21T18:25:43.930Z,31.03
2019-04-21T18:28:00.845Z,35.93
2019-04-21T18:30:42.680Z,33.37
2019-04-21T18:33:21.361Z,31.07
2019-04-21T18:36:00.215Z,29.73
2019-04-21T18:38:59.741Z,26.33
2019-04-21T18:41:15.261Z,34.00
2019-04-21T18:44:15.495Z,39.90
2019-04-21T18:46:59.267Z,31.90
2019-04-21T18:49:19.334Z,27.57
2019-04-21T18:52:00.813Z,31.97
2019-04-21T18:54:44.441Z,36.93
2019-04-21T18:57:10.648Z,30.10
2019-04-21T18:59:39.385Z,27.10
2019-04-21T19:02:09.857Z,28.43
2019-04-21T19:04:40.522Z,33.97
2019-04-21T19:07:20.005Z,36.80
2019-04-21T19:12:47.771Z,31.30
2019-04-21T19:14:57.967Z,23.60
2019-04-21T19:22:38.756Z,34.03
2019-04-21T19:25:18.002Z,27.13
2019-04-21T19:27:45.496Z,31.63
2019-04-21T19:30:26.902Z,27.07
2019-04-21T19:32:45.348Z,35.40
2019-04-21T19:35:04.112Z,28.93
2019-04-21T19:37:45.255Z,28.23
2019-04-21T19:40:27.560Z,27.50
2019-04-21T19:42:54.982Z,27.60
2019-04-21T19:45:27.808Z,27.47
2019-04-21T19:47:59.455Z,28.27
2019-04-21T19:50:37.265Z,34.03
2019-04-21T19:52:57.437Z,33.03
2019-04-21T19:55:20.332Z,29.07
2019-04-21T19:57:50.777Z,29.50
2019-04-21T20:00:22.269Z,28.20
2019-04-21T20:02:54.506Z,28.83
2019-04-21T20:05:35.302Z,28.60
2019-04-21T20:08:12.908Z,33.20
2019-04-21T20:10:48.372Z,35.03
2019-04-21T20:13:25.960Z,43.20
2019-04-21T20:15:52.370Z,38.37
2019-04-21T20:18:18.796Z,42.47
2019-04-21T20:20:37.285Z,42.57
2019-04-21T20:23:13.188Z,41.53
2019-04-21T20:25:48.455Z,47.90
2019-04-21T20:28:22.247Z,51.83
2019-04-21T20:31:03.753Z,48.53
2019-04-21T20:33:48.694Z,50.07
2019-04-21T20:36:12.235Z,46.10
2019-04-21T20:38:34.089Z,33.33
2019-04-21T20:41:01.870Z,44.90
2019-04-21T20:43:42.545Z,42.23
2019-04-21T20:46:12.555Z,36.80
2019-04-21T20:48:42.126Z,42.80
2019-04-21T20:51:18.306Z,40.67
2019-04-21T20:53:46.525Z,41.03
2019-04-21T20:56:15.637Z,34.73
2019-04-21T20:58:53.710Z,34.97
2019-04-21T21:01:54.960Z,38.77
2019-04-21T21:03:51.840Z,46.47
2019-04-21T21:06:26.144Z,45.93
2019-04-21T21:09:01.356Z,44.03
2019-04-21T21:11:43.570Z,48.67
2019-04-21T21:14:09.992Z,48.57
2019-04-21T21:21:40.441Z,48.70
2019-04-21T21:24:10.255Z,41.40
2019-04-21T21:26:52.138Z,36.43
2019-04-21T21:29:16.879Z,31.07
2019-04-21T21:31:48.874Z,32.03
2019-04-21T21:34:20.917Z,42.43
2019-04-21T21:36:55.282Z,36.00
2019-04-21T21:39:21.358Z,30.23
2019-04-21T21:41:45.188Z,30.67
2019-04-21T21:44:18.265Z,32.83
2019-04-21T21:46:59.172Z,30.73
2019-04-21T21:49:37.079Z,32.83
2019-04-21T21:51:59.228Z,30.80
2019-04-21T21:54:20.008Z,30.03
2019-04-21T21:56:50.536Z,28.17
2019-04-21T21:59:25.730Z,27.43
2019-04-21T22:01:54.897Z,32.90
2019-04-21T22:04:28.201Z,32.30
2019-04-21T22:07:03.858Z,29.60
2019-04-21T22:09:30.292Z,24.40
2019-04-21T22:12:06.295Z,25.03
2019-04-21T22:14:41.081Z,23.40
2019-04-21T22:17:22.089Z,25.37
2019-04-21T22:20:03.066Z,28.53
2019-04-21T22:22:23.344Z,22.33
2019-04-21T22:24:54.477Z,26.50
2019-04-21T22:27:14.909Z,29.43
2019-04-21T22:29:49.783Z,29.23
2019-04-21T22:32:21.585Z,29.87
2019-04-21T22:34:54.682Z,31.63
2019-04-21T22:37:35.360Z,28.93
2019-04-21T22:40:07.098Z,28.37
2019-04-21T22:42:29.453Z,33.67
2019-04-21T22:44:56.651Z,30.23
2019-04-21T22:47:32.677Z,32.53
2019-04-21T22:49:59.075Z,31.07
2019-04-21T22:52:31.619Z,34.27
2019-04-21T22:55:09.336Z,30.07
2019-04-21T22:57:39.795Z,26.83
2019-04-21T23:00:20.379Z,31.77
2019-04-21T23:02:56.127Z,30.40
2019-04-21T23:05:30.277Z,28.43
2019-04-21T23:07:59.945Z,27.47
2019-04-21T23:10:27.347Z,28.60
2019-04-21T23:13:04.816Z,28.17
2019-04-21T23:15:39.539Z,30.03
2019-04-21T23:18:22.146Z,24.77
2019-04-21T23:20:55.133Z,30.60
2019-04-21T23:23:30.310Z,26.10
2019-04-21T23:25:53.109Z,31.43
2019-04-21T23:28:36.410Z,29.53
2019-04-21T23:31:00.444Z,36.23
2019-04-21T23:33:18.220Z,37.80
2019-04-21T23:35:49.256Z,36.80
2019-04-21T23:38:26.602Z,42.27
2019-04-21T23:40:56.301Z,45.23
2019-04-21T23:43:27.305Z,37.03
2019-04-21T23:45:55.351Z,34.87
2019-04-21T23:48:36.563Z,37.87
2019-04-21T23:51:13.881Z,39.63
2019-04-21T23:53:29.317Z,38.27
2019-04-21T23:56:01.191Z,33.37
2019-04-21T23:58:34.440Z,41.60
